Delta — PDPC — position and weather

sailwx.info

Track history (hours):
 
Tides and Currents Weather Stations Pressure Air Temp Water Temp Dewpoint Dewpoint Depression Visibility Wind Speed Wind Dir Waves Ship Positions

Oceanographic research ship Delta (Netherlands)

Detailed information on ship capabilities available from University of Delaware's Ocean Information Center.

Last reported at 2018-Apr-21 21:00 UTC. Time now 2018-Apr-23 19:04 UTC.
Position N 51°27' E 004°01'.

MMSI: 244696464.

Date/timePositionNaut miles runAvg speedWind from/ knotsBaromVisibWave heightAir tempDewpointWater temp
2018-Apr-21 21:00N 51°27' E 004°01'0 0.0
2018-Apr-21 05:20N 51°27' E 004°01'0 0.0
2018-Apr-20 03:03N 51°27' E 004°01'0 0.0
2018-Apr-19 20:23N 51°27' E 004°01'0 0.0
2018-Apr-19 19:59N 51°27' E 004°01'6 0.7
2018-Apr-19 11:56N 51°22' E 004°06'5 6.8
2018-Apr-19 11:08N 51°21' E 004°15'0 3.0
2018-Apr-19 11:00N 51°21' E 004°15'0 0.0
2018-Apr-19 10:30N 51°21' E 004°15'0 0.0
2018-Apr-19 10:00N 51°21' E 004°15'0 0.0
2018-Apr-19 09:29N 51°21' E 004°15'0 0.0
2018-Apr-19 09:00N 51°21' E 004°15'5 3.3
2018-Apr-19 07:25N 51°22' E 004°07'6 1.3
2018-Apr-19 02:28N 51°27' E 004°01'0 0.0
2018-Apr-18 19:51N 51°27' E 004°01'0 0.0
2018-Apr-18 01:47N 51°27' E 004°01'0 0.0
2018-Apr-18 01:01N 51°27' E 004°01'0 0.0
2018-Apr-18 00:51N 51°27' E 004°01'0 0.0
2018-Apr-18 00:25N 51°27' E 004°01'0 0.0
2018-Apr-17 02:31N 51°27' E 004°01'0 0.0
2018-Apr-17 02:20N 51°27' E 004°01'0 0.0
2018-Apr-16 19:05N 51°27' E 004°01'0 0.0
2018-Apr-16 13:56N 51°27' E 004°01'0 0.0
2018-Apr-16 13:29N 51°27' E 004°01'0 0.0
2018-Apr-16 12:55N 51°27' E 004°01'0 0.0
2018-Apr-16 12:29N 51°27' E 004°01'0 0.0
2018-Apr-16 11:59N 51°27' E 004°01'0 0.0
2018-Apr-16 11:27N 51°27' E 004°01'0 0.0
2018-Apr-16 10:56N 51°27' E 004°01'0 0.0
2018-Apr-16 10:29N 51°27' E 004°01'0 0.0
2018-Apr-16 09:40N 51°27' E 004°01'0 0.9
2018-Apr-16 09:27N 51°27' E 004°01'1 2.8
2018-Apr-16 08:56N 51°28' E 004°00'4 7.2
2018-Apr-16 08:26N 51°32' E 003°60'10 0.8
2018-Apr-15 20:18N 51°40' E 004°10'0 0.0
2018-Apr-15 19:18N 51°40' E 004°10'0 0.0
2018-Apr-15 18:59N 51°40' E 004°10'0 0.0
2018-Apr-15 01:56N 51°40' E 004°10'8 0.5
2018-Apr-14 10:03N 51°41' E 004°23'0 3.5
2018-Apr-14 10:00N 51°42' E 004°23'1 1.2
2018-Apr-14 09:22N 51°41' E 004°23'8 0.6
2018-Apr-13 19:51N 51°40' E 004°10'0 0.0
2018-Apr-13 00:42N 51°40' E 004°10'0 0.0
2018-Apr-12 05:14N 51°40' E 004°10'0 0.0
2018-Apr-12 04:58N 51°40' E 004°10'0 0.0
2018-Apr-12 04:30N 51°40' E 004°10'0 0.0
2018-Apr-12 03:23N 51°40' E 004°10'0 0.0
2018-Apr-12 02:51N 51°40' E 004°10'0 0.0
2018-Apr-12 02:30N 51°40' E 004°10'0 0.0
2018-Apr-12 01:20N 51°40' E 004°10'0 0.0
2018-Apr-12 01:00N 51°40' E 004°10'0 0.0
2018-Apr-12 00:26N 51°40' E 004°10'0 0.0
2018-Apr-12 00:00N 51°40' E 004°10'0 0.0
2018-Apr-11 23:25N 51°40' E 004°10'0 0.0
2018-Apr-11 21:44N 51°40' E 004°10'0 0.0
2018-Apr-11 21:23N 51°40' E 004°10'  
Track history (hours):
 
Tides and Currents Weather Stations Pressure Air Temp Water Temp Dewpoint Dewpoint Depression Visibility Wind Speed Wind Dir Waves Ship Positions

Oceanographic research ship Delta (Netherlands)

Detailed information on ship capabilities available from University of Delaware's Ocean Information Center.

Last reported at 2018-Apr-21 21:00 UTC. Time now 2018-Apr-23 19:04 UTC.
Position N 51°27' E 004°01'.

MMSI: 244696464.

Date/timePositionNaut miles runAvg speedWind from/ knotsBaromVisibWave heightAir tempDewpointWater temp
2018-Apr-21 21:00N 51°27' E 004°01'0 0.0
2018-Apr-21 05:20N 51°27' E 004°01'0 0.0
2018-Apr-20 03:03N 51°27' E 004°01'0 0.0
2018-Apr-19 20:23N 51°27' E 004°01'0 0.0
2018-Apr-19 19:59N 51°27' E 004°01'6 0.7
2018-Apr-19 11:56N 51°22' E 004°06'5 6.8
2018-Apr-19 11:08N 51°21' E 004°15'0 3.0
2018-Apr-19 11:00N 51°21' E 004°15'0 0.0
2018-Apr-19 10:30N 51°21' E 004°15'0 0.0
2018-Apr-19 10:00N 51°21' E 004°15'0 0.0
2018-Apr-19 09:29N 51°21' E 004°15'0 0.0
2018-Apr-19 09:00N 51°21' E 004°15'5 3.3
2018-Apr-19 07:25N 51°22' E 004°07'6 1.3
2018-Apr-19 02:28N 51°27' E 004°01'0 0.0
2018-Apr-18 19:51N 51°27' E 004°01'0 0.0
2018-Apr-18 01:47N 51°27' E 004°01'0 0.0
2018-Apr-18 01:01N 51°27' E 004°01'0 0.0
2018-Apr-18 00:51N 51°27' E 004°01'0 0.0
2018-Apr-18 00:25N 51°27' E 004°01'0 0.0
2018-Apr-17 02:31N 51°27' E 004°01'0 0.0
2018-Apr-17 02:20N 51°27' E 004°01'0 0.0
2018-Apr-16 19:05N 51°27' E 004°01'0 0.0
2018-Apr-16 13:56N 51°27' E 004°01'0 0.0
2018-Apr-16 13:29N 51°27' E 004°01'0 0.0
2018-Apr-16 12:55N 51°27' E 004°01'0 0.0
2018-Apr-16 12:29N 51°27' E 004°01'0 0.0
2018-Apr-16 11:59N 51°27' E 004°01'0 0.0
2018-Apr-16 11:27N 51°27' E 004°01'0 0.0
2018-Apr-16 10:56N 51°27' E 004°01'0 0.0
2018-Apr-16 10:29N 51°27' E 004°01'0 0.0
2018-Apr-16 09:40N 51°27' E 004°01'0 0.9
2018-Apr-16 09:27N 51°27' E 004°01'1 2.8
2018-Apr-16 08:56N 51°28' E 004°00'4 7.2
2018-Apr-16 08:26N 51°32' E 003°60'10 0.8
2018-Apr-15 20:18N 51°40' E 004°10'0 0.0
2018-Apr-15 19:18N 51°40' E 004°10'0 0.0
2018-Apr-15 18:59N 51°40' E 004°10'0 0.0
2018-Apr-15 01:56N 51°40' E 004°10'8 0.5
2018-Apr-14 10:03N 51°41' E 004°23'0 3.5
2018-Apr-14 10:00N 51°42' E 004°23'1 1.2
2018-Apr-14 09:22N 51°41' E 004°23'8 0.6
2018-Apr-13 19:51N 51°40' E 004°10'0 0.0
2018-Apr-13 00:42N 51°40' E 004°10'0 0.0
2018-Apr-12 05:14N 51°40' E 004°10'0 0.0
2018-Apr-12 04:58N 51°40' E 004°10'0 0.0
2018-Apr-12 04:30N 51°40' E 004°10'0 0.0
2018-Apr-12 03:23N 51°40' E 004°10'0 0.0
2018-Apr-12 02:51N 51°40' E 004°10'0 0.0
2018-Apr-12 02:30N 51°40' E 004°10'0 0.0
2018-Apr-12 01:20N 51°40' E 004°10'0 0.0
2018-Apr-12 01:00N 51°40' E 004°10'0 0.0
2018-Apr-12 00:26N 51°40' E 004°10'0 0.0
2018-Apr-12 00:00N 51°40' E 004°10'0 0.0
2018-Apr-11 23:25N 51°40' E 004°10'0 0.0
2018-Apr-11 21:44N 51°40' E 004°10'0 0.0
2018-Apr-11 21:23N 51°40' E 004°10'  

Dump ship's entire track history